Terminal Aerodrome Forecast
Issued by NWS

Home | Current Version | Previous Version | Text Only | Print | Product List | Glossary On
Versions: 1 2 3 4 5 6 7 8 9 10 11 12 13 14 15
000
FTUS44 KCRP 261500 AAB
TAFALI
TAF AMD
KALI 261524Z 2615/2712 16014G20KT P6SM BKN015 OVC035
      TEMPO 2615/2618 SCT015 BKN035
     FM261800 16012KT P6SM BKN040 OVC250
     FM262300 15008KT P6SM FEW025 SCT250
     FM270600 16007KT 4SM BR BKN009 OVC018
     FM270900 16005KT 1SM BR OVC007=

USA.gov is the U.S. government's official web portal to all federal, state and local government web resources and services.